KMLJ

Details ICAO KMLJ (MLJ)
Name BALDWIN CO
Region United States
Timezone America/New_York (UTC-4.0)
Plans Departing 1
Arriving 5
Stats Elevation 384 ft / 117 m (AMSL)
Location 33.154170° -83.241361°
Runways 1
Magnetic Variation 5.870° W
Sunrise 2018-05-26 10:28:29 UTC / 2018-05-26 06:28:29 Local
Sunset 2018-05-27 00:34:27 UTC / 2018-05-26 20:34:27 Local
Advertisement - Login to hide

Runways

ID Width Length Bearing (true) Bearing (mag) Surface Threshold Offset Overrun Length
10 100 ft / 30 m 5,490 ft / 1,673 m 91.05° 96.92° Asphalt 0 ft / 0 m 0 ft / 0 m
28 100 ft / 30 m 5,490 ft / 1,673 m 271.06° 276.93° Asphalt 0 ft / 0 m 0 ft / 0 m

Map

Weather


0- 5 10 15 20 25 30 35+ Temperature / ° C

Clouds and Precipitation
Forecast for 2018-05-26 06:00 UTC. Updated 5 hours ago

Ground ~20,000 ft ~40,000 ft Winds

METAR

KMLJ 261015Z AUTO 00000KT 5SM BR CLR 21/21 A2993 RMK AO2

TAF

Not found

Frequencies

Recorded 120.92 MHz AWOS 3
Approach 119.60 MHz ATLANTA APP/DEP
Unicom 122.80 MHz CTAF/UNICOM
Approach 124.20 MHz ATLANTA APP/DEP
Warning: Do not use this data for real-world aviation or navigation. No guarantee of current accuracy is given.